Time;durP1;ratioP1;P1;durP2;ratioP2;P2;SDS_P1;SDS_P2;PMS_P1;PMS_P2;Temp;Humidity;BMP_temperature;BMP_pressure;BME280_temperature;BME280_humidity;BME280_pressure;Samples;Min_cycle;Max_cycle;Signal;HPM_P1;HPM_P2
2021/10/17 00:02:36;;;;;;;3.85;2.40;;;17.50;67.20;;;;;;10497399;28;20048;-55
2021/10/17 00:07:37;;;;;;;5.13;2.72;;;17.50;67.20;;;;;;10497683;28;20071;-55
2021/10/17 00:12:39;;;;;;;3.97;2.50;;;17.50;67.30;;;;;;10493851;28;20033;-56
2021/10/17 00:17:41;;;;;;;4.32;2.60;;;17.40;67.20;;;;;;10470800;28;20029;-54
2021/10/17 00:22:42;;;;;;;4.78;3.03;;;17.40;67.30;;;;;;10496267;28;20028;-55
2021/10/17 00:27:44;;;;;;;4.63;3.20;;;17.50;67.20;;;;;;10497663;28;20028;-54
2021/10/17 00:32:46;;;;;;;6.28;2.78;;;17.60;66.90;;;;;;10496330;28;20028;-54
2021/10/17 00:37:47;;;;;;;5.50;2.90;;;17.60;66.70;;;;;;10496859;28;20480;-55
2021/10/17 00:42:49;;;;;;;5.00;3.90;;;17.60;66.60;;;;;;10495608;28;20033;-55
2021/10/17 00:47:50;;;;;;;6.55;3.90;;;17.60;66.60;;;;;;10497096;28;20024;-55
2021/10/17 00:52:51;;;;;;;4.55;2.80;;;17.60;66.60;;;;;;10507786;28;20044;-55
2021/10/17 00:57:52;;;;;;;3.05;2.38;;;17.50;66.60;;;;;;10496758;28;20024;-55
2021/10/17 01:02:53;;;;;;;5.13;2.95;;;17.50;66.70;;;;;;10497059;28;20032;-51
2021/10/17 01:07:54;;;;;;;6.35;2.67;;;17.50;66.80;;;;;;10496087;28;20060;-50
2021/10/17 01:12:55;;;;;;;4.05;2.42;;;17.50;66.90;;;;;;10496559;28;20105;-54
2021/10/17 01:17:56;;;;;;;6.18;2.55;;;17.50;66.90;;;;;;10502134;28;20090;-53
2021/10/17 01:22:57;;;;;;;4.80;2.47;;;17.50;66.80;;;;;;10498930;28;20445;-51
2021/10/17 01:27:58;;;;;;;5.07;2.42;;;17.50;66.60;;;;;;10504409;28;20107;-50
2021/10/17 01:32:59;;;;;;;5.18;2.90;;;17.60;66.50;;;;;;10503783;28;20054;-53
2021/10/17 01:38:00;;;;;;;5.13;2.58;;;17.60;66.20;;;;;;10503574;28;20063;-54
2021/10/17 01:43:01;;;;;;;5.85;3.30;;;17.60;66.20;;;;;;10503818;28;20120;-53
2021/10/17 01:48:03;;;;;;;5.63;2.85;;;17.60;66.30;;;;;;10503495;28;20029;-53
2021/10/17 01:53:04;;;;;;;4.82;2.80;;;17.60;66.40;;;;;;10503344;28;20028;-55
2021/10/17 01:58:04;;;;;;;5.05;2.58;;;17.50;66.40;;;;;;10502115;28;20028;-53
2021/10/17 02:03:05;;;;;;;3.97;2.75;;;17.50;66.60;;;;;;10502693;28;20166;-53
2021/10/17 02:08:06;;;;;;;4.03;2.35;;;17.50;66.60;;;;;;10501901;28;20469;-53
2021/10/17 02:13:06;;;;;;;5.07;3.40;;;17.50;66.60;;;;;;10501414;28;20060;-50
2021/10/17 02:18:07;;;;;;;5.72;2.90;;;17.50;66.50;;;;;;10502258;28;20107;-54
2021/10/17 02:23:08;;;;;;;5.53;2.40;;;17.50;66.30;;;;;;10501041;28;20362;-54
2021/10/17 02:28:08;;;;;;;4.70;2.25;;;17.70;66.00;;;;;;10502238;28;20028;-50
2021/10/17 02:33:09;;;;;;;4.07;2.72;;;17.70;65.90;;;;;;10500723;28;20040;-54
2021/10/17 02:38:10;;;;;;;8.38;2.90;;;17.70;65.90;;;;;;10501720;28;20040;-55
2021/10/17 02:43:11;;;;;;;4.07;2.65;;;17.60;66.00;;;;;;10497127;28;20086;-52
2021/10/17 02:48:12;;;;;;;4.20;2.35;;;17.60;66.10;;;;;;10502544;28;20029;-55
2021/10/17 02:53:12;;;;;;;5.47;2.60;;;17.50;66.20;;;;;;10509823;28;20500;-54
2021/10/17 02:58:13;;;;;;;5.22;2.60;;;17.50;66.40;;;;;;10501097;28;20028;-53
2021/10/17 03:03:14;;;;;;;5.68;3.10;;;17.50;66.40;;;;;;10482697;28;20029;-52
2021/10/17 03:08:14;;;;;;;4.50;2.70;;;17.40;66.50;;;;;;10499540;28;20052;-54
2021/10/17 03:13:15;;;;;;;4.38;2.42;;;17.50;66.40;;;;;;10499160;28;20029;-51
2021/10/17 03:18:16;;;;;;;4.38;2.63;;;17.60;66.00;;;;;;10499905;28;20054;-52
2021/10/17 03:23:16;;;;;;;4.47;2.53;;;17.60;65.80;;;;;;10498618;28;20123;-54
2021/10/17 03:28:17;;;;;;;4.18;2.70;;;17.60;65.80;;;;;;10499815;28;20035;-56
2021/10/17 03:33:18;;;;;;;4.82;2.45;;;17.60;65.90;;;;;;10497975;28;20032;-53
2021/10/17 03:38:18;;;;;;;4.18;2.70;;;17.60;66.00;;;;;;10498995;28;20061;-51
2021/10/17 03:43:19;;;;;;;4.88;2.63;;;17.50;66.20;;;;;;10498803;28;20496;-52
2021/10/17 03:48:20;;;;;;;5.38;2.78;;;17.50;66.30;;;;;;10500728;28;20040;-51
2021/10/17 03:53:21;;;;;;;5.47;3.25;;;17.40;66.30;;;;;;10507491;28;20103;-53
2021/10/17 03:58:21;;;;;;;3.85;2.55;;;17.50;66.10;;;;;;10498506;28;20063;-51
2021/10/17 04:03:22;;;;;;;4.05;2.60;;;17.60;65.70;;;;;;10496796;28;20036;-51
2021/10/17 04:08:22;;;;;;;3.88;2.67;;;17.60;65.60;;;;;;10498393;28;20031;-52
2021/10/17 04:13:23;;;;;;;5.13;2.53;;;17.70;65.60;;;;;;10487308;28;20028;-52
2021/10/17 04:18:24;;;;;;;3.38;2.42;;;17.60;65.60;;;;;;10495274;28;20117;-53
2021/10/17 04:23:25;;;;;;;3.83;2.65;;;17.60;65.70;;;;;;10497583;28;20060;-52
2021/10/17 04:28:26;;;;;;;4.38;2.63;;;17.60;65.90;;;;;;10496295;28;20070;-52
2021/10/17 04:33:27;;;;;;;5.05;2.70;;;17.60;65.90;;;;;;10497770;28;20056;-51
2021/10/17 04:38:27;;;;;;;5.72;3.22;;;17.60;65.70;;;;;;10497534;28;20052;-52
2021/10/17 04:43:28;;;;;;;4.30;2.47;;;17.70;65.30;;;;;;10497067;28;20464;-51
2021/10/17 04:48:29;;;;;;;4.47;2.65;;;18.00;64.50;;;;;;10497535;28;20055;-52
2021/10/17 04:53:29;;;;;;;4.32;2.97;;;18.30;63.60;;;;;;10496186;28;20077;-51
2021/10/17 04:58:30;;;;;;;7.45;2.83;;;18.60;62.70;;;;;;10503828;28;20111;-53
2021/10/17 05:03:31;;;;;;;4.80;2.63;;;18.80;62.20;;;;;;10509477;28;20376;-53
2021/10/17 05:08:32;;;;;;;6.80;2.95;;;18.80;62.20;;;;;;10510463;28;20052;-49
2021/10/17 05:13:33;;;;;;;5.78;3.45;;;18.70;62.40;;;;;;10508661;28;20400;-48
2021/10/17 05:18:33;;;;;;;4.30;2.75;;;18.70;63.00;;;;;;10509893;28;20089;-48
2021/10/17 05:23:38;;;;;;;4.22;2.75;;;18.60;63.20;;;;;;10509891;28;20134;-48
2021/10/17 05:28:38;;;;;;;4.35;2.90;;;18.60;63.30;;;;;;10513443;28;20034;-51
2021/10/17 05:33:39;;;;;;;5.65;3.45;;;18.60;63.40;;;;;;10551744;28;20103;-52
2021/10/17 05:38:41;;;;;;;6.00;3.30;;;18.60;63.90;;;;;;10534480;28;20087;-53
2021/10/17 05:43:41;;;;;;;6.55;2.92;;;18.70;63.80;;;;;;10524542;28;20437;-56
2021/10/17 05:48:42;;;;;;;6.30;3.00;;;18.70;65.40;;;;;;10518086;28;20047;-51
2021/10/17 05:53:43;;;;;;;6.78;3.33;;;18.70;66.10;;;;;;10526481;28;20099;-48
2021/10/17 05:58:43;;;;;;;5.80;3.75;;;18.70;65.60;;;;;;10517116;28;20090;-47
2021/10/17 06:03:44;;;;;;;8.23;3.65;;;18.60;65.70;;;;;;10514351;28;20096;-50
2021/10/17 06:08:46;;;;;;;8.10;3.70;;;18.40;65.90;;;;;;10519383;28;20188;-53
2021/10/17 06:13:47;;;;;;;8.95;3.55;;;18.30;66.00;;;;;;10499621;28;20032;-53
2021/10/17 06:18:47;;;;;;;10.90;3.85;;;18.40;65.70;;;;;;10517847;28;20404;-50
2021/10/17 06:23:48;;;;;;;21.88;3.88;;;18.40;65.80;;;;;;10515997;28;20444;-51
2021/10/17 06:28:49;;;;;;;18.05;4.75;;;18.40;65.70;;;;;;10501789;28;20055;-51
2021/10/17 06:33:49;;;;;;;10.48;4.13;;;18.50;65.60;;;;;;10501603;28;20107;-53
2021/10/17 06:38:50;;;;;;;12.27;4.32;;;18.60;65.10;;;;;;10508072;28;20136;-54
2021/10/17 06:43:51;;;;;;;15.90;4.22;;;18.50;65.10;;;;;;10500856;28;20039;-53
2021/10/17 06:48:51;;;;;;;14.38;4.47;;;18.50;65.30;;;;;;10506600;28;20047;-54
2021/10/17 06:53:52;;;;;;;14.85;4.35;;;18.40;65.60;;;;;;10506324;28;20063;-49
2021/10/17 06:58:53;;;;;;;11.38;3.85;;;18.50;65.20;;;;;;10501364;28;20116;-51
2021/10/17 07:03:54;;;;;;;11.88;3.38;;;18.50;65.00;;;;;;10497002;28;20112;-49
2021/10/17 07:08:54;;;;;;;16.50;4.45;;;18.50;65.30;;;;;;10499483;28;20527;-50
2021/10/17 07:13:55;;;;;;;11.85;3.75;;;18.50;65.80;;;;;;10498090;28;20114;-48
2021/10/17 07:18:55;;;;;;;7.40;3.65;;;18.30;66.00;;;;;;10494700;28;20490;-52
2021/10/17 07:23:56;;;;;;;9.90;3.25;;;18.40;65.60;;;;;;10493279;28;20043;-50
2021/10/17 07:28:57;;;;;;;8.10;4.20;;;18.50;65.20;;;;;;10496038;28;20107;-49
2021/10/17 07:33:58;;;;;;;9.82;3.28;;;18.40;65.20;;;;;;10497050;28;20464;-51
2021/10/17 07:38:58;;;;;;;6.30;3.33;;;18.40;65.10;;;;;;10498302;28;20052;-50
2021/10/17 07:43:59;;;;;;;6.95;3.60;;;18.50;64.80;;;;;;10498000;28;20037;-53
2021/10/17 07:49:00;;;;;;;9.43;3.92;;;18.50;64.80;;;;;;10506851;28;20095;-51
2021/10/17 07:54:01;;;;;;;7.93;3.13;;;18.40;65.00;;;;;;10500461;28;20029;-49
2021/10/17 07:59:02;;;;;;;8.27;2.95;;;18.30;65.10;;;;;;10498402;28;20109;-49
2021/10/17 08:04:03;;;;;;;9.55;3.33;;;18.20;65.30;;;;;;10497431;28;20032;-49
2021/10/17 08:09:03;;;;;;;9.88;3.78;;;18.20;65.40;;;;;;10498004;28;20035;-49
2021/10/17 08:14:04;;;;;;;11.10;3.50;;;18.30;65.10;;;;;;10497455;28;20036;-49
2021/10/17 08:19:05;;;;;;;8.00;2.90;;;18.30;64.80;;;;;;10496284;28;20027;-50
2021/10/17 08:24:06;;;;;;;6.30;3.63;;;18.30;64.80;;;;;;10493363;28;20124;-53
2021/10/17 08:29:06;;;;;;;6.93;3.17;;;18.40;64.80;;;;;;10491187;28;20036;-55
2021/10/17 08:34:07;;;;;;;7.30;3.30;;;18.40;64.70;;;;;;10503594;28;20029;-54
2021/10/17 08:39:08;;;;;;;8.95;3.45;;;18.40;65.00;;;;;;10502388;28;20102;-57
2021/10/17 08:44:09;;;;;;;10.77;3.58;;;18.50;65.20;;;;;;10494891;28;20438;-55
2021/10/17 08:49:10;;;;;;;9.45;3.70;;;18.50;65.60;;;;;;10525325;28;20112;-56
2021/10/17 08:54:11;;;;;;;12.10;3.42;;;18.50;65.60;;;;;;10501165;28;20473;-50
2021/10/17 08:59:12;;;;;;;10.18;3.63;;;18.50;65.60;;;;;;10510075;28;20032;-55
2021/10/17 09:04:14;;;;;;;13.35;4.22;;;18.40;65.40;;;;;;10500266;28;20033;-56
2021/10/17 09:09:18;;;;;;;6.32;3.15;;;18.40;65.40;;;;;;10504601;28;20051;-56
2021/10/17 09:14:24;;;;;;;10.13;5.25;;;18.30;66.00;;;;;;10496676;28;20032;-56
2021/10/17 09:19:30;;;;;;;9.57;3.78;;;18.30;65.40;;;;;;10511471;28;20044;-56
2021/10/17 09:24:47;;;;;;;6.65;3.95;;;18.20;65.30;;;;;;10503148;28;20040;-56
2021/10/17 09:29:52;;;;;;;10.07;4.10;;;18.20;65.30;;;;;;10507902;28;20025;-55
2021/10/17 09:35:05;;;;;;;7.32;3.72;;;18.20;65.40;;;;;;10496434;28;20120;-51
2021/10/17 09:40:24;;;;;;;7.82;3.38;;;18.10;65.30;;;;;;10488461;28;20131;-55
2021/10/17 09:45:25;;;;;;;10.05;4.00;;;18.10;65.30;;;;;;10507886;28;20024;-54
2021/10/17 09:50:26;;;;;;;7.78;3.92;;;18.10;65.00;;;;;;10528329;28;20032;-55
2021/10/17 09:55:28;;;;;;;9.15;3.80;;;18.20;64.60;;;;;;10510390;28;20039;-55
2021/10/17 10:00:32;;;;;;;7.35;4.00;;;18.30;64.30;;;;;;10511040;28;20025;-54
2021/10/17 10:05:34;;;;;;;8.68;3.40;;;18.30;64.30;;;;;;10526405;28;20059;-55
2021/10/17 10:10:35;;;;;;;6.22;3.30;;;18.20;64.40;;;;;;10509471;28;20048;-54
2021/10/17 10:15:36;;;;;;;12.23;4.68;;;18.20;64.50;;;;;;10501424;28;20436;-55
2021/10/17 10:20:38;;;;;;;9.98;4.20;;;18.10;64.60;;;;;;10500354;28;20032;-54
2021/10/17 10:25:41;;;;;;;5.07;3.80;;;18.10;64.60;;;;;;10508082;28;20036;-55
2021/10/17 10:30:42;;;;;;;7.07;4.10;;;18.20;64.40;;;;;;10501226;28;20024;-52
2021/10/17 10:36:13;;;;;;;9.48;3.50;;;18.20;64.30;;;;;;10508387;28;20032;-56
2021/10/17 10:41:17;;;;;;;9.32;3.75;;;18.20;64.30;;;;;;10502015;28;20044;-55
2021/10/17 10:46:29;;;;;;;6.88;3.90;;;18.10;64.30;;;;;;10510202;28;20366;-55
2021/10/17 10:51:41;;;;;;;12.13;4.60;;;18.10;64.20;;;;;;10516209;28;20374;-55
2021/10/17 10:56:46;;;;;;;16.02;5.38;;;18.30;63.80;;;;;;10513291;28;20113;-56
2021/10/17 11:02:11;;;;;;;11.90;5.25;;;18.40;64.20;;;;;;10489622;28;20044;-56
2021/10/17 11:07:22;;;;;;;10.00;4.82;;;18.50;64.60;;;;;;10510989;28;20021;-55
2021/10/17 11:12:41;;;;;;;11.52;4.00;;;18.70;63.70;;;;;;10498905;28;20028;-49
2021/10/17 11:18:00;;;;;;;6.97;4.80;;;18.90;63.70;;;;;;10513677;28;20051;-54
2021/10/17 11:23:03;;;;;;;;;;;19.00;64.00;;;;;;10520583;28;20374;-50
2021/10/17 11:28:09;;;;;;;9.90;3.90;;;19.00;64.10;;;;;;10499185;28;19909;-52
2021/10/17 11:33:38;;;;;;;10.23;4.63;;;19.00;63.70;;;;;;10497499;28;20119;-52
2021/10/17 11:38:40;;;;;;;8.18;3.75;;;18.90;64.10;;;;;;10491578;28;20054;-54
2021/10/17 11:43:47;;;;;;;13.27;5.13;;;18.80;64.50;;;;;;10506923;28;20063;-54
2021/10/17 11:48:55;;;;;;;12.60;4.55;;;18.70;64.90;;;;;;10484787;28;20039;-54
2021/10/17 11:53:59;;;;;;;11.85;4.05;;;18.70;65.30;;;;;;10497219;28;20032;-54
2021/10/17 11:59:10;;;;;;;15.75;4.10;;;18.60;65.70;;;;;;10497780;28;20098;-54
2021/10/17 12:04:11;;;;;;;11.52;4.30;;;18.60;65.30;;;;;;10502621;28;20032;-55
2021/10/17 12:09:18;;;;;;;9.73;4.20;;;18.60;65.40;;;;;;10497608;28;20434;-55
2021/10/17 12:14:26;;;;;;;7.60;4.22;;;18.50;64.70;;;;;;10495985;28;20032;-53
2021/10/17 12:19:27;;;;;;;11.02;4.22;;;18.40;64.80;;;;;;10510954;28;20039;-56
2021/10/17 12:24:28;;;;;;;13.18;4.72;;;18.40;64.80;;;;;;10497146;28;20025;-53
2021/10/17 12:29:31;;;;;;;11.40;4.50;;;18.30;64.90;;;;;;10521408;28;20058;-55
2021/10/17 12:34:44;;;;;;;9.52;3.83;;;18.30;65.10;;;;;;10498197;28;20047;-55
2021/10/17 12:39:46;;;;;;;10.90;4.63;;;18.20;65.10;;;;;;10510239;28;20053;-55
2021/10/17 12:44:49;;;;;;;9.98;4.53;;;18.20;65.20;;;;;;10496744;28;20031;-55
2021/10/17 12:49:49;;;;;;;8.73;4.07;;;18.10;65.50;;;;;;10518869;28;20464;-53
2021/10/17 12:54:57;;;;;;;13.65;4.57;;;18.10;65.20;;;;;;10496936;28;20106;-52
2021/10/17 13:00:02;;;;;;;9.82;4.55;;;18.10;65.40;;;;;;10496108;28;20036;-53
2021/10/17 13:05:08;;;;;;;9.15;3.30;;;18.10;65.40;;;;;;10503967;28;20118;-54
2021/10/17 13:10:16;;;;;;;8.20;3.63;;;18.10;65.70;;;;;;10524368;28;20381;-54
2021/10/17 13:15:29;;;;;;;7.10;4.32;;;18.10;65.70;;;;;;10484044;28;20037;-54
2021/10/17 13:20:38;;;;;;;11.25;3.70;;;18.00;65.60;;;;;;10489790;28;20036;-51
2021/10/17 13:25:40;;;;;;;8.65;3.92;;;18.00;65.70;;;;;;10511418;28;20097;-54
2021/10/17 13:30:43;;;;;;;13.00;4.60;;;18.00;65.60;;;;;;10511291;28;20119;-52
2021/10/17 13:35:44;;;;;;;10.20;4.30;;;18.00;65.30;;;;;;10517368;28;20385;-56
2021/10/17 13:40:44;;;;;;;17.50;4.68;;;17.90;65.20;;;;;;10501914;28;20146;-54
2021/10/17 13:45:45;;;;;;;8.25;4.25;;;17.90;65.40;;;;;;10502168;28;20032;-55
2021/10/17 13:50:46;;;;;;;17.25;5.70;;;17.90;65.60;;;;;;10523318;28;20165;-54
2021/10/17 13:55:46;;;;;;;12.30;5.57;;;17.90;65.90;;;;;;10505147;28;20107;-54
2021/10/17 14:00:47;;;;;;;10.68;5.40;;;17.90;65.90;;;;;;10500780;28;20060;-54
2021/10/17 14:05:48;;;;;;;15.95;5.30;;;17.90;66.20;;;;;;10502791;28;20376;-56
2021/10/17 14:10:50;;;;;;;16.65;5.47;;;18.00;66.30;;;;;;10506745;28;20473;-53
2021/10/17 14:15:51;;;;;;;14.82;5.03;;;18.10;65.80;;;;;;10500642;28;20621;-56
2021/10/17 14:20:52;;;;;;;14.75;5.43;;;18.10;65.60;;;;;;10500257;28;20056;-56
2021/10/17 14:25:53;;;;;;;11.07;4.72;;;18.00;65.60;;;;;;10498324;28;20021;-56
2021/10/17 14:30:56;;;;;;;9.98;4.68;;;18.00;65.60;;;;;;10496670;28;20075;-55
2021/10/17 14:35:57;;;;;;;17.40;4.53;;;18.00;65.70;;;;;;10497469;28;20137;-55
2021/10/17 14:40:58;;;;;;;9.93;3.78;;;17.90;65.60;;;;;;10500004;28;20165;-55
2021/10/17 14:45:58;;;;;;;11.80;4.55;;;17.90;65.70;;;;;;10501475;28;20037;-55
2021/10/17 14:50:59;;;;;;;8.07;4.05;;;17.90;65.60;;;;;;10512084;28;20488;-56
2021/10/17 14:56:00;;;;;;;7.78;3.95;;;17.90;65.60;;;;;;10499818;28;20111;-55
2021/10/17 15:01:00;;;;;;;6.63;3.72;;;17.90;65.40;;;;;;10502240;28;20025;-56
2021/10/17 15:06:01;;;;;;;12.88;5.03;;;17.90;65.30;;;;;;10510985;28;20334;-54
2021/10/17 15:11:02;;;;;;;8.15;3.50;;;18.00;65.20;;;;;;10513718;28;20102;-53
2021/10/17 15:16:03;;;;;;;21.58;4.82;;;18.10;64.90;;;;;;10496077;28;20588;-56
2021/10/17 15:21:03;;;;;;;14.63;5.43;;;18.20;65.00;;;;;;10478479;28;20082;-56
2021/10/17 15:26:04;;;;;;;17.85;5.05;;;18.30;64.70;;;;;;10521442;28;20052;-57
2021/10/17 15:31:05;;;;;;;15.02;5.05;;;18.50;64.40;;;;;;10515002;28;20114;-56
2021/10/17 15:36:05;;;;;;;13.52;4.88;;;18.60;63.90;;;;;;10513769;28;20116;-56
2021/10/17 15:41:12;;;;;;;13.00;4.13;;;18.70;63.70;;;;;;10498012;28;20044;-56
2021/10/17 15:46:12;;;;;;;10.05;5.10;;;18.80;63.30;;;;;;10511375;28;20056;-56
2021/10/17 15:51:13;;;;;;;8.20;4.57;;;18.80;63.40;;;;;;10522825;28;20055;-56
2021/10/17 15:56:14;;;;;;;25.42;10.00;;;18.80;63.40;;;;;;10515394;28;20542;-52
2021/10/17 16:01:14;;;;;;;19.48;5.70;;;18.80;65.80;;;;;;10507744;28;20422;-54
2021/10/17 16:06:15;;;;;;;12.45;5.57;;;18.90;63.70;;;;;;10512419;28;20643;-53
2021/10/17 16:11:16;;;;;;;9.93;4.38;;;18.90;63.60;;;;;;10504063;28;20068;-55
2021/10/17 16:16:17;;;;;;;7.97;5.00;;;18.90;63.60;;;;;;10495912;28;20032;-55
2021/10/17 16:21:18;;;;;;;23.80;15.27;;;18.80;63.60;;;;;;10497432;28;20037;-53
2021/10/17 16:26:19;;;;;;;18.35;11.75;;;18.80;63.10;;;;;;10510683;28;20040;-54
2021/10/17 16:31:26;;;;;;;16.38;10.70;;;18.60;63.50;;;;;;10508751;28;20032;-55
2021/10/17 16:36:26;;;;;;;20.08;10.50;;;18.60;64.40;;;;;;10497699;28;20056;-54
2021/10/17 16:41:28;;;;;;;16.92;8.73;;;18.60;63.90;;;;;;10508316;28;20404;-51
2021/10/17 16:46:29;;;;;;;13.48;8.27;;;18.70;64.20;;;;;;10497023;28;20143;-53
2021/10/17 16:51:31;;;;;;;12.73;7.38;;;18.80;63.50;;;;;;10507874;28;20032;-55
2021/10/17 16:56:31;;;;;;;13.07;6.22;;;18.80;63.30;;;;;;10495868;28;20614;-53
2021/10/17 17:01:33;;;;;;;15.13;7.20;;;18.80;63.20;;;;;;10496629;28;20047;-55
2021/10/17 17:06:34;;;;;;;12.35;6.15;;;18.80;63.80;;;;;;10496563;28;20089;-56
2021/10/17 17:11:35;;;;;;;10.88;5.90;;;18.80;63.60;;;;;;10500449;28;20115;-55
2021/10/17 17:16:35;;;;;;;11.48;5.30;;;18.70;63.60;;;;;;10496671;28;20039;-54
2021/10/17 17:21:37;;;;;;;11.05;5.05;;;18.60;63.60;;;;;;10500493;28;20070;-51
2021/10/17 17:26:38;;;;;;;7.65;4.32;;;18.80;62.70;;;;;;10498304;28;20032;-52
2021/10/17 17:31:39;;;;;;;5.28;3.78;;;19.00;62.10;;;;;;10494874;28;20492;-53
2021/10/17 17:36:39;;;;;;;8.65;4.32;;;19.00;62.20;;;;;;10506122;28;20033;-54
2021/10/17 17:41:41;;;;;;;9.45;4.50;;;18.90;62.30;;;;;;10495831;28;20049;-49
2021/10/17 17:46:42;;;;;;;11.32;4.05;;;18.80;63.30;;;;;;10495637;28;20042;-55
2021/10/17 17:51:43;;;;;;;9.13;4.35;;;18.80;63.60;;;;;;10506690;28;20512;-53
2021/10/17 17:56:44;;;;;;;10.73;4.75;;;18.80;63.10;;;;;;10476564;28;20123;-53
2021/10/17 18:01:45;;;;;;;6.90;3.58;;;18.80;63.60;;;;;;10487861;28;20124;-52
2021/10/17 18:06:45;;;;;;;6.63;3.35;;;18.70;64.10;;;;;;10501462;28;20028;-52
2021/10/17 18:11:46;;;;;;;6.75;4.38;;;18.60;64.60;;;;;;10513925;28;20033;-49
2021/10/17 18:16:47;;;;;;;9.73;3.67;;;18.60;65.00;;;;;;10502317;28;20033;-50
2021/10/17 18:21:49;;;;;;;6.13;4.15;;;18.60;65.20;;;;;;10504717;28;20028;-51
2021/10/17 18:26:52;;;;;;;7.50;4.45;;;18.60;65.30;;;;;;10521358;28;20029;-50
2021/10/17 18:31:52;;;;;;;6.35;4.10;;;18.60;65.60;;;;;;10502557;28;20036;-50
2021/10/17 18:36:53;;;;;;;6.80;3.53;;;18.50;65.20;;;;;;10503239;28;20056;-50
2021/10/17 18:41:55;;;;;;;7.50;3.67;;;18.40;65.20;;;;;;10500405;28;20125;-50
2021/10/17 18:46:56;;;;;;;13.05;3.55;;;18.40;65.40;;;;;;10497661;28;20477;-50
2021/10/17 18:51:57;;;;;;;11.98;3.90;;;18.30;65.50;;;;;;10501321;28;20032;-49
2021/10/17 18:56:57;;;;;;;9.60;3.70;;;18.30;65.70;;;;;;10499017;28;20453;-52
2021/10/17 19:01:58;;;;;;;6.15;3.83;;;18.30;65.80;;;;;;10500727;28;20123;-48
2021/10/17 19:06:59;;;;;;;6.07;3.50;;;18.30;65.90;;;;;;10503669;28;20028;-49
2021/10/17 19:12:00;;;;;;;8.57;3.75;;;18.20;66.00;;;;;;10504796;28;20484;-51
2021/10/17 19:17:01;;;;;;;8.80;3.75;;;18.20;66.20;;;;;;10522233;28;20111;-51
2021/10/17 19:22:02;;;;;;;6.38;4.03;;;18.20;66.30;;;;;;10497174;28;20499;-48
2021/10/17 19:27:03;;;;;;;6.82;4.05;;;18.10;66.50;;;;;;10498012;28;20122;-52
2021/10/17 19:32:04;;;;;;;9.13;4.55;;;18.10;66.80;;;;;;10515770;28;20032;-47
2021/10/17 19:37:05;;;;;;;6.28;3.72;;;18.10;66.70;;;;;;10507243;28;20057;-49
2021/10/17 19:42:06;;;;;;;7.13;3.90;;;18.10;66.80;;;;;;10528326;28;20121;-48
2021/10/17 19:47:06;;;;;;;6.00;3.65;;;18.00;66.90;;;;;;10520846;28;20027;-47
2021/10/17 19:52:07;;;;;;;8.48;4.25;;;18.00;66.90;;;;;;10529342;28;20548;-51
2021/10/17 19:57:08;;;;;;;6.82;4.25;;;18.00;66.90;;;;;;10515642;28;20036;-48
2021/10/17 20:02:09;;;;;;;6.07;4.03;;;17.90;66.90;;;;;;10537068;28;20028;-52
2021/10/17 20:07:10;;;;;;;5.88;3.45;;;17.90;67.00;;;;;;10525896;28;20031;-52
2021/10/17 20:12:11;;;;;;;6.43;3.78;;;17.90;67.10;;;;;;10536033;28;20031;-49
2021/10/17 20:17:12;;;;;;;5.93;3.92;;;17.90;67.10;;;;;;10526601;28;20036;-52
2021/10/17 20:22:12;;;;;;;6.88;4.00;;;17.80;67.00;;;;;;10538132;28;20032;-50
2021/10/17 20:27:13;;;;;;;6.05;3.97;;;17.80;67.00;;;;;;10528257;28;20036;-50
2021/10/17 20:32:14;;;;;;;9.77;4.88;;;17.80;67.00;;;;;;10539277;28;20032;-53
2021/10/17 20:37:21;;;;;;;5.88;4.10;;;17.80;67.00;;;;;;10517517;28;20494;-51
2021/10/17 20:42:21;;;;;;;6.85;3.95;;;17.80;67.00;;;;;;10536141;28;20452;-52
2021/10/17 20:47:24;;;;;;;5.70;4.13;;;17.70;66.90;;;;;;10480148;28;20035;-52
2021/10/17 20:52:25;;;;;;;7.28;3.90;;;17.70;66.90;;;;;;10535608;28;20032;-52
2021/10/17 20:57:26;;;;;;;5.63;3.67;;;17.70;67.00;;;;;;10535812;28;20126;-50
2021/10/17 21:02:27;;;;;;;5.60;3.65;;;17.70;67.10;;;;;;10538247;28;20111;-52
2021/10/17 21:07:28;;;;;;;7.03;4.25;;;17.70;67.10;;;;;;10527472;28;20035;-52
2021/10/17 21:12:28;;;;;;;5.97;4.68;;;17.70;67.10;;;;;;10518428;28;20047;-46
2021/10/17 21:17:29;;;;;;;8.23;5.35;;;17.60;67.10;;;;;;10527328;28;20039;-47
2021/10/17 21:22:31;;;;;;;7.00;4.90;;;17.60;67.20;;;;;;10537822;28;20170;-47
2021/10/17 21:27:32;;;;;;;9.57;5.57;;;17.60;67.20;;;;;;10532218;28;20020;-46
2021/10/17 21:32:33;;;;;;;7.45;4.88;;;17.60;67.10;;;;;;10527513;28;20123;-47
2021/10/17 21:37:34;;;;;;;8.98;5.18;;;17.60;67.20;;;;;;10534242;28;20031;-47
2021/10/17 21:42:35;;;;;;;8.70;5.10;;;17.60;67.20;;;;;;10528435;28;20048;-46
2021/10/17 21:47:36;;;;;;;6.88;5.00;;;17.60;67.30;;;;;;10528047;28;20024;-46
2021/10/17 21:52:37;;;;;;;9.32;4.72;;;17.60;67.20;;;;;;10545514;28;20036;-46
2021/10/17 21:57:37;;;;;;;7.97;4.90;;;17.50;67.20;;;;;;10532849;28;20426;-46
2021/10/17 22:02:38;;;;;;;6.75;4.60;;;17.50;67.20;;;;;;10530443;28;20032;-46
2021/10/17 22:07:39;;;;;;;5.90;4.20;;;17.50;67.30;;;;;;10535450;28;20046;-47
2021/10/17 22:12:40;;;;;;;10.32;4.57;;;17.50;67.20;;;;;;10538005;28;20115;-46
2021/10/17 22:17:41;;;;;;;7.32;4.88;;;17.50;67.30;;;;;;10533033;28;20057;-46
2021/10/17 22:22:43;;;;;;;7.43;4.13;;;17.50;67.40;;;;;;10542310;28;20361;-46
2021/10/17 22:27:44;;;;;;;4.72;4.13;;;17.50;67.40;;;;;;10531691;28;20047;-46
2021/10/17 22:32:46;;;;;;;6.57;4.10;;;17.50;67.40;;;;;;10544111;28;20058;-48
2021/10/17 22:37:46;;;;;;;6.78;4.65;;;17.40;67.30;;;;;;10537369;28;20044;-49
2021/10/17 22:42:47;;;;;;;4.80;3.95;;;17.40;67.40;;;;;;10534313;28;20106;-47
2021/10/17 22:47:48;;;;;;;6.78;4.50;;;17.40;68.10;;;;;;10538590;28;20135;-48
2021/10/17 22:52:49;;;;;;;5.80;4.28;;;17.40;67.50;;;;;;10536161;28;20103;-48
2021/10/17 22:57:49;;;;;;;5.00;4.00;;;17.40;67.40;;;;;;10534630;28;20127;-48
2021/10/17 23:02:51;;;;;;;5.97;4.20;;;17.40;67.40;;;;;;10532532;28;20064;-49
2021/10/17 23:07:51;;;;;;;6.00;4.38;;;17.50;67.20;;;;;;10534183;28;20067;-46
2021/10/17 23:12:52;;;;;;;5.72;4.40;;;17.50;67.10;;;;;;10528977;28;20037;-46
2021/10/17 23:17:55;;;;;;;5.13;3.88;;;17.50;67.00;;;;;;10524928;28;20027;-48
2021/10/17 23:22:55;;;;;;;4.95;4.05;;;17.50;66.80;;;;;;10535396;28;20061;-46
2021/10/17 23:27:56;;;;;;;5.35;4.13;;;17.50;66.70;;;;;;10527955;28;20361;-48
2021/10/17 23:32:57;;;;;;;5.85;4.50;;;17.60;66.70;;;;;;10538022;28;20042;-47
2021/10/17 23:37:58;;;;;;;6.00;4.00;;;17.60;66.70;;;;;;10534279;28;20534;-47
2021/10/17 23:42:58;;;;;;;5.43;3.90;;;17.50;66.70;;;;;;10517814;28;20044;-46
2021/10/17 23:47:59;;;;;;;6.30;3.67;;;17.50;66.70;;;;;;10514285;28;20029;-47
2021/10/17 23:53:00;;;;;;;9.20;4.53;;;17.50;66.70;;;;;;10528567;28;20068;-47
2021/10/17 23:58:01;;;;;;;6.68;4.75;;;17.50;66.70;;;;;;10525610;28;20023;-46
